createdAt,value
2023-03-26T00:02:15.665Z,100.00
2023-03-26T00:04:46.713Z,100.00
2023-03-26T00:07:16.322Z,100.00
2023-03-26T00:09:45.438Z,100.00
2023-03-26T00:12:14.625Z,100.00
2023-03-26T00:14:45.223Z,100.00
2023-03-26T00:17:14.506Z,100.00
2023-03-26T00:19:43.575Z,100.00
2023-03-26T00:22:13.735Z,100.00
2023-03-26T00:24:46.104Z,100.00
2023-03-26T00:27:15.215Z,100.00
2023-03-26T00:29:45.847Z,100.00
2023-03-26T00:32:14.883Z,100.00
2023-03-26T00:34:46.410Z,100.00
2023-03-26T00:37:15.666Z,100.00
2023-03-26T00:39:44.826Z,100.00
2023-03-26T00:42:15.061Z,100.00
2023-03-26T00:44:46.804Z,100.00
2023-03-26T00:47:16.147Z,100.00
2023-03-26T00:49:47.168Z,100.00
2023-03-26T00:52:18.933Z,100.00
2023-03-26T00:54:48.436Z,100.00
2023-03-26T00:57:25.799Z,100.00
2023-03-26T01:00:16.582Z,100.00
2023-03-26T01:02:46.563Z,100.00
2023-03-26T01:05:45.733Z,100.00
2023-03-26T01:08:22.924Z,100.00
2023-03-26T01:10:53.320Z,100.00
2023-03-26T01:13:24.847Z,100.00
2023-03-26T01:15:55.559Z,100.00
2023-03-26T01:18:27.233Z,100.00
2023-03-26T01:21:07.700Z,100.00
2023-03-26T01:23:43.059Z,100.00
2023-03-26T01:26:27.434Z,100.00
2023-03-26T01:29:01.867Z,100.00
2023-03-26T01:31:37.212Z,100.00
2023-03-26T01:34:13.448Z,100.00
2023-03-26T01:36:50.475Z,100.00
2023-03-26T01:39:26.412Z,100.00
2023-03-26T01:42:02.933Z,100.00
2023-03-26T01:44:41.280Z,100.00
2023-03-26T01:47:12.361Z,100.00
2023-03-26T01:49:41.461Z,100.00
2023-03-26T01:52:16.564Z,100.00
2023-03-26T01:54:47.354Z,100.00
2023-03-26T01:57:25.781Z,100.00
2023-03-26T02:00:11.840Z,100.00
2023-03-26T02:02:56.544Z,100.00
2023-03-26T02:05:30.072Z,100.00
2023-03-26T02:08:09.928Z,100.00
2023-03-26T02:10:44.348Z,100.00
2023-03-26T02:13:16.206Z,100.00
2023-03-26T02:15:57.830Z,100.00
2023-03-26T02:18:36.972Z,100.00
2023-03-26T02:21:10.339Z,100.00
2023-03-26T02:23:42.255Z,100.00
2023-03-26T02:26:13.031Z,100.00
2023-03-26T02:28:57.188Z,100.00
2023-03-26T02:31:27.258Z,100.00
2023-03-26T02:34:11.648Z,100.00
2023-03-26T02:36:44.351Z,100.00
2023-03-26T02:39:14.540Z,100.00
2023-03-26T02:41:49.513Z,100.00
2023-03-26T02:44:20.708Z,100.00
2023-03-26T02:47:01.656Z,100.00
2023-03-26T02:49:49.249Z,100.00
2023-03-26T02:52:26.253Z,100.00
2023-03-26T02:54:58.497Z,100.00
2023-03-26T02:57:28.998Z,100.00
2023-03-26T03:00:31.608Z,100.00
2023-03-26T03:03:30.234Z,100.00
2023-03-26T03:05:59.876Z,100.00
2023-03-26T03:08:36.036Z,100.00
2023-03-26T03:11:11.997Z,100.00
2023-03-26T03:13:52.621Z,100.00
2023-03-26T03:16:29.054Z,100.00
2023-03-26T03:19:02.061Z,100.00
2023-03-26T03:21:41.812Z,100.00
2023-03-26T03:24:11.842Z,100.00
2023-03-26T03:26:50.559Z,100.00
2023-03-26T03:29:48.767Z,100.00
2023-03-26T03:32:37.963Z,100.00
2023-03-26T03:35:09.120Z,100.00
2023-03-26T03:37:38.615Z,100.00
2023-03-26T03:40:12.756Z,100.00
2023-03-26T03:42:42.489Z,100.00
2023-03-26T03:45:13.653Z,100.00
2023-03-26T03:48:05.307Z,100.00
2023-03-26T03:50:42.195Z,100.00
2023-03-26T03:53:40.883Z,100.00
2023-03-26T03:56:11.478Z,100.00
2023-03-26T03:59:01.221Z,100.00
2023-03-26T04:01:36.580Z,100.00
2023-03-26T04:04:13.995Z,100.00
2023-03-26T04:07:12.419Z,100.00
2023-03-26T04:10:04.093Z,100.00
2023-03-26T04:12:53.235Z,100.00
2023-03-26T04:15:36.282Z,100.00
2023-03-26T04:18:11.794Z,100.00
2023-03-26T04:23:29.968Z,100.00
2023-03-26T04:26:07.882Z,100.00
2023-03-26T04:29:02.891Z,100.00
2023-03-26T04:31:34.407Z,100.00
2023-03-26T04:34:08.916Z,100.00
2023-03-26T04:36:46.510Z,100.00
2023-03-26T04:39:19.430Z,100.00
2023-03-26T04:42:20.184Z,100.00
2023-03-26T04:45:12.035Z,100.00
2023-03-26T04:47:43.979Z,100.00
2023-03-26T04:50:14.246Z,100.00
2023-03-26T04:52:45.476Z,100.00
2023-03-26T04:55:53.796Z,100.00
2023-03-26T04:58:42.591Z,100.00
2023-03-26T05:01:12.394Z,100.00
2023-03-26T05:03:46.019Z,100.00
2023-03-26T05:06:19.216Z,100.00
2023-03-26T05:08:48.566Z,100.00
2023-03-26T05:11:37.274Z,100.00
2023-03-26T05:14:07.012Z,100.00
2023-03-26T05:16:41.657Z,100.00
2023-03-26T05:19:11.314Z,100.00
2023-03-26T05:21:41.467Z,100.00
2023-03-26T05:24:10.599Z,100.00
2023-03-26T05:26:41.672Z,100.00
2023-03-26T05:29:10.894Z,100.00
2023-03-26T05:31:46.356Z,100.00
2023-03-26T05:34:15.857Z,96.08
2023-03-26T05:36:44.914Z,90.33
2023-03-26T05:39:44.128Z,86.77
2023-03-26T05:42:34.958Z,91.60
2023-03-26T05:45:23.516Z,94.73
2023-03-26T05:47:55.097Z,91.11
2023-03-26T05:50:27.092Z,92.56
2023-03-26T05:53:01.181Z,90.74
2023-03-26T05:55:59.693Z,80.34
2023-03-26T05:58:39.577Z,73.14
2023-03-26T06:01:29.640Z,65.33
2023-03-26T06:04:19.216Z,62.60
2023-03-26T06:07:11.506Z,63.59
2023-03-26T06:09:42.634Z,63.20
2023-03-26T06:12:12.692Z,61.26
2023-03-26T06:14:44.386Z,62.93
2023-03-26T06:17:21.381Z,64.62
2023-03-26T06:20:09.214Z,60.61
2023-03-26T06:22:42.435Z,66.54
2023-03-26T06:25:34.693Z,67.01
2023-03-26T06:28:10.561Z,67.28
2023-03-26T06:31:12.681Z,67.80
2023-03-26T06:33:53.623Z,69.17
2023-03-26T06:36:23.312Z,69.66
2023-03-26T06:38:53.847Z,73.04
2023-03-26T06:41:23.413Z,72.64
2023-03-26T06:44:11.501Z,75.14
2023-03-26T06:47:01.052Z,80.47
2023-03-26T06:50:09.602Z,74.88
2023-03-26T06:53:01.897Z,76.00
2023-03-26T06:58:46.978Z,80.64
2023-03-26T07:01:34.724Z,79.75
2023-03-26T07:04:22.989Z,80.38
2023-03-26T07:07:20.630Z,78.79
2023-03-26T07:10:09.167Z,72.96
2023-03-26T07:12:38.425Z,77.37
2023-03-26T07:15:32.161Z,72.39
2023-03-26T07:18:33.705Z,73.50
2023-03-26T07:21:05.820Z,71.97
2023-03-26T07:23:36.136Z,67.47
2023-03-26T07:26:32.667Z,66.14
2023-03-26T07:29:28.116Z,65.39
2023-03-26T07:32:21.943Z,62.85
2023-03-26T07:35:28.668Z,62.03
2023-03-26T07:38:29.508Z,65.63
2023-03-26T07:41:22.515Z,67.87
2023-03-26T07:44:35.729Z,66.04
2023-03-26T07:47:36.163Z,68.93
2023-03-26T07:50:27.570Z,66.57
2023-03-26T07:53:05.236Z,68.61
2023-03-26T07:56:16.028Z,65.09
2023-03-26T07:59:16.637Z,61.38
2023-03-26T08:02:28.955Z,61.00
2023-03-26T08:05:19.994Z,62.15
2023-03-26T08:08:17.722Z,61.85
2023-03-26T08:11:15.479Z,60.24
2023-03-26T08:14:03.826Z,62.35
2023-03-26T08:16:38.694Z,61.82
2023-03-26T08:19:29.980Z,63.72
2023-03-26T08:22:08.596Z,61.01
2023-03-26T08:24:47.287Z,56.48
2023-03-26T08:27:24.627Z,55.44
2023-03-26T08:30:02.559Z,55.40
2023-03-26T08:32:33.308Z,53.35
2023-03-26T08:35:05.339Z,53.81
2023-03-26T08:37:36.613Z,54.55
2023-03-26T08:40:07.079Z,54.63
2023-03-26T08:43:11.029Z,54.55
2023-03-26T08:45:59.887Z,52.29
2023-03-26T08:48:57.246Z,51.03
2023-03-26T08:52:01.320Z,50.21
2023-03-26T08:55:18.057Z,49.17
2023-03-26T08:58:11.492Z,47.17
2023-03-26T09:00:58.826Z,45.01
2023-03-26T09:04:05.267Z,47.28
2023-03-26T09:07:16.771Z,46.18
2023-03-26T09:10:32.564Z,47.18
2023-03-26T09:13:35.672Z,46.30
2023-03-26T09:16:27.254Z,44.20
2023-03-26T09:19:25.606Z,44.09
2023-03-26T09:22:29.135Z,46.31
2023-03-26T09:25:30.129Z,45.49
2023-03-26T09:28:39.951Z,43.54
2023-03-26T09:31:29.335Z,44.24
2023-03-26T09:34:20.047Z,42.68
2023-03-26T09:37:08.325Z,41.28
2023-03-26T09:39:45.429Z,39.71
2023-03-26T09:42:25.150Z,41.11
2023-03-26T09:45:29.580Z,40.47
2023-03-26T09:48:28.090Z,39.23
2023-03-26T09:51:15.224Z,38.53
2023-03-26T09:53:59.551Z,38.50
2023-03-26T09:56:40.702Z,38.26
2023-03-26T09:59:39.520Z,38.74
2023-03-26T10:02:45.866Z,38.27
2023-03-26T10:05:34.487Z,38.38
2023-03-26T10:08:20.484Z,37.85
2023-03-26T10:10:56.238Z,36.93
2023-03-26T10:13:34.876Z,37.86
2023-03-26T10:16:18.659Z,38.76
2023-03-26T10:18:57.444Z,36.80
2023-03-26T10:21:36.632Z,36.98
2023-03-26T10:24:42.133Z,37.20
2023-03-26T10:27:26.237Z,35.94
2023-03-26T10:30:29.914Z,36.71
2023-03-26T10:33:14.874Z,37.92
2023-03-26T10:35:49.781Z,38.07
2023-03-26T10:38:26.629Z,36.96
2023-03-26T10:41:07.808Z,37.66
2023-03-26T10:44:07.495Z,36.41
2023-03-26T10:47:08.703Z,37.14
2023-03-26T10:50:04.590Z,36.51
2023-03-26T10:52:39.402Z,36.26
2023-03-26T10:55:16.109Z,35.68
2023-03-26T10:57:50.732Z,35.55
2023-03-26T11:00:25.660Z,35.78
2023-03-26T11:03:13.679Z,34.69
2023-03-26T11:05:53.050Z,33.67
2023-03-26T11:08:32.022Z,35.07
2023-03-26T11:11:10.153Z,33.27
2023-03-26T11:13:52.675Z,34.00
2023-03-26T11:16:29.831Z,33.31
2023-03-26T11:19:05.682Z,33.00
2023-03-26T11:21:45.846Z,34.04
2023-03-26T11:24:40.267Z,33.20
2023-03-26T11:27:22.627Z,30.67
2023-03-26T11:30:03.612Z,32.46
2023-03-26T11:32:42.934Z,31.22
2023-03-26T11:35:40.336Z,31.08
2023-03-26T11:38:20.719Z,30.47
2023-03-26T11:40:56.016Z,29.71
2023-03-26T11:43:52.621Z,28.58
2023-03-26T11:46:24.533Z,30.16
2023-03-26T11:48:59.975Z,29.64
2023-03-26T11:51:33.186Z,28.32
2023-03-26T11:54:05.879Z,29.88
2023-03-26T11:56:39.096Z,29.55
2023-03-26T11:59:13.932Z,30.48
2023-03-26T12:01:51.226Z,29.32
2023-03-26T12:04:29.248Z,29.21
2023-03-26T12:07:09.047Z,27.54
2023-03-26T12:09:52.267Z,27.81
2023-03-26T12:12:26.843Z,27.62
2023-03-26T12:14:57.896Z,26.68
2023-03-26T12:17:32.269Z,26.75
2023-03-26T12:20:02.422Z,27.56
2023-03-26T12:22:37.513Z,26.33
2023-03-26T12:25:20.408Z,26.16
2023-03-26T12:27:51.594Z,25.55
2023-03-26T12:30:23.509Z,24.13
2023-03-26T12:32:54.702Z,24.19
2023-03-26T12:35:27.948Z,23.40
2023-03-26T12:38:16.893Z,23.11
2023-03-26T12:40:48.177Z,24.19
2023-03-26T12:44:49.730Z,24.96
2023-03-26T12:47:58.982Z,24.56
2023-03-26T12:49:16.160Z,23.97
2023-03-26T12:51:52.055Z,24.23
2023-03-26T12:54:46.287Z,23.34
2023-03-26T12:57:21.794Z,24.41
2023-03-26T13:00:11.116Z,23.23
2023-03-26T13:03:06.967Z,23.44
2023-03-26T13:05:47.068Z,23.21
2023-03-26T13:08:46.781Z,24.26
2023-03-26T13:11:28.614Z,25.86
2023-03-26T13:14:22.645Z,25.46
2023-03-26T13:16:57.613Z,24.97
2023-03-26T13:19:35.099Z,26.24
2023-03-26T13:22:18.847Z,27.12
2023-03-26T13:24:58.448Z,27.51
2023-03-26T13:27:43.806Z,28.06
2023-03-26T13:30:27.441Z,29.02
2023-03-26T13:33:19.795Z,27.66
2023-03-26T13:36:10.265Z,29.17
2023-03-26T13:38:59.206Z,27.48
2023-03-26T13:41:42.553Z,28.05
2023-03-26T13:44:18.913Z,29.28
2023-03-26T13:46:53.728Z,29.19
2023-03-26T13:49:37.422Z,30.38
2023-03-26T13:52:12.094Z,31.09
2023-03-26T13:54:48.192Z,29.92
2023-03-26T13:57:24.523Z,27.26
2023-03-26T13:59:57.833Z,28.33
2023-03-26T14:02:35.309Z,29.15
2023-03-26T14:05:12.639Z,31.26
2023-03-26T14:07:46.564Z,31.33
2023-03-26T14:10:21.386Z,32.51
2023-03-26T14:12:57.996Z,31.79
2023-03-26T14:15:32.673Z,31.91
2023-03-26T14:18:14.812Z,32.30
2023-03-26T14:21:25.241Z,32.91
2023-03-26T14:24:16.719Z,31.68
2023-03-26T14:27:07.371Z,32.71
2023-03-26T14:29:57.080Z,32.60
2023-03-26T14:32:38.441Z,32.48
2023-03-26T14:35:33.930Z,32.14
2023-03-26T14:38:24.241Z,33.08
2023-03-26T14:40:59.195Z,32.08
2023-03-26T14:43:54.645Z,32.51
2023-03-26T14:46:37.136Z,32.05
2023-03-26T14:49:36.527Z,31.75
2023-03-26T14:52:15.673Z,32.94
2023-03-26T14:54:49.069Z,32.36
2023-03-26T14:57:54.925Z,32.30
2023-03-26T15:01:04.142Z,32.41
2023-03-26T15:04:12.631Z,32.77
2023-03-26T15:07:13.144Z,32.17
2023-03-26T15:10:18.834Z,33.02
2023-03-26T15:13:04.687Z,33.48
2023-03-26T15:16:12.990Z,33.45
2023-03-26T15:19:19.208Z,33.55
2023-03-26T15:22:27.010Z,33.66
2023-03-26T15:25:27.881Z,33.57
2023-03-26T15:28:17.048Z,33.81
2023-03-26T15:31:11.019Z,34.17
2023-03-26T15:34:27.804Z,35.39
2023-03-26T15:37:48.512Z,35.27
2023-03-26T15:40:43.452Z,35.55
2023-03-26T15:43:18.006Z,35.08
2023-03-26T15:45:49.710Z,35.75
2023-03-26T15:48:37.985Z,35.71
2023-03-26T15:51:46.783Z,36.52
2023-03-26T15:54:24.714Z,37.17
2023-03-26T15:57:07.506Z,36.51
2023-03-26T15:59:44.039Z,37.34
2023-03-26T16:02:26.450Z,36.68
2023-03-26T16:04:57.949Z,36.84
2023-03-26T16:07:59.053Z,37.00
2023-03-26T16:10:41.056Z,36.85
2023-03-26T16:13:36.558Z,36.83
2023-03-26T16:16:46.901Z,36.95
2023-03-26T16:19:37.564Z,37.41
2023-03-26T16:22:09.943Z,37.81
2023-03-26T16:24:43.337Z,38.33
2023-03-26T16:27:29.979Z,38.00
2023-03-26T16:30:20.608Z,38.18
2023-03-26T16:32:56.716Z,38.89
2023-03-26T16:35:43.254Z,38.77
2023-03-26T16:38:14.886Z,39.25
2023-03-26T16:41:01.986Z,39.42
2023-03-26T16:43:53.025Z,40.26
2023-03-26T16:46:35.978Z,41.28
2023-03-26T16:49:17.663Z,41.56
2023-03-26T16:52:04.404Z,41.61
2023-03-26T16:54:43.945Z,41.62
2023-03-26T16:57:25.311Z,41.83
2023-03-26T17:00:23.614Z,41.95
2023-03-26T17:03:03.814Z,41.85
2023-03-26T17:05:38.535Z,42.58
2023-03-26T17:08:17.360Z,42.88
2023-03-26T17:10:57.891Z,43.38
2023-03-26T17:13:39.221Z,43.07
2023-03-26T17:16:17.209Z,43.29
2023-03-26T17:19:01.570Z,44.64
2023-03-26T17:21:46.073Z,44.34
2023-03-26T17:24:28.373Z,42.37
2023-03-26T17:27:35.512Z,44.10
2023-03-26T17:30:11.654Z,45.25
2023-03-26T17:32:59.026Z,46.51
2023-03-26T17:35:44.985Z,47.17
2023-03-26T17:38:51.083Z,45.83
2023-03-26T17:41:53.089Z,45.63
2023-03-26T17:44:45.240Z,47.06
2023-03-26T17:47:26.290Z,47.31
2023-03-26T17:50:01.698Z,48.47
2023-03-26T17:52:48.288Z,49.02
2023-03-26T17:55:21.385Z,49.62
2023-03-26T17:57:53.172Z,50.88
2023-03-26T18:00:26.922Z,51.03
2023-03-26T18:02:59.721Z,52.63
2023-03-26T18:05:32.213Z,54.26
2023-03-26T18:08:52.575Z,54.15
2023-03-26T18:11:59.986Z,54.65
2023-03-26T18:14:59.677Z,55.68
2023-03-26T18:17:40.649Z,55.83
2023-03-26T18:20:23.540Z,56.29
2023-03-26T18:22:53.660Z,56.14
2023-03-26T18:25:27.276Z,55.37
2023-03-26T18:27:59.864Z,56.99
2023-03-26T18:30:30.915Z,58.67
2023-03-26T18:33:03.486Z,59.53
2023-03-26T18:35:42.673Z,58.67
2023-03-26T18:38:18.919Z,59.23
2023-03-26T18:41:06.796Z,60.54
2023-03-26T18:43:44.574Z,60.91
2023-03-26T18:46:17.326Z,60.58
2023-03-26T18:48:48.413Z,60.35
2023-03-26T18:51:23.333Z,60.93
2023-03-26T18:53:56.055Z,61.07
2023-03-26T18:56:35.413Z,63.05
2023-03-26T18:59:07.009Z,61.28
2023-03-26T19:01:39.764Z,60.38
2023-03-26T19:04:10.166Z,59.90
2023-03-26T19:06:43.717Z,62.03
2023-03-26T19:09:30.344Z,61.88
2023-03-26T19:12:07.876Z,62.68
2023-03-26T19:14:54.962Z,62.02
2023-03-26T19:17:34.679Z,64.14
2023-03-26T19:20:09.482Z,64.23
2023-03-26T19:22:41.768Z,65.14
2023-03-26T19:25:21.815Z,64.80
2023-03-26T19:27:52.067Z,66.30
2023-03-26T19:30:30.245Z,67.33
2023-03-26T19:33:13.091Z,69.50
2023-03-26T19:35:45.800Z,72.65
2023-03-26T19:38:22.782Z,71.68
2023-03-26T19:40:53.408Z,69.90
2023-03-26T19:43:23.038Z,71.17
2023-03-26T19:46:00.416Z,72.75
2023-03-26T19:48:45.402Z,74.06
2023-03-26T19:51:24.415Z,75.81
2023-03-26T19:53:55.959Z,75.17
2023-03-26T19:56:25.801Z,76.99
2023-03-26T19:58:55.800Z,75.29
2023-03-26T20:01:26.878Z,75.89
2023-03-26T20:03:59.507Z,76.52
2023-03-26T20:06:42.631Z,76.52
2023-03-26T20:09:14.385Z,78.09
2023-03-26T20:11:43.654Z,77.77
2023-03-26T20:14:17.564Z,76.84
2023-03-26T20:16:46.787Z,77.24
2023-03-26T20:19:17.767Z,78.83
2023-03-26T20:21:47.284Z,78.57
2023-03-26T20:24:18.568Z,80.25
2023-03-26T20:26:48.618Z,80.89
2023-03-26T20:29:18.068Z,82.65
2023-03-26T20:31:48.699Z,84.84
2023-03-26T20:34:22.098Z,85.91
2023-03-26T20:36:55.460Z,86.75
2023-03-26T20:39:26.535Z,86.87
2023-03-26T20:41:57.418Z,86.19
2023-03-26T20:44:27.099Z,84.89
2023-03-26T20:46:59.115Z,86.22
2023-03-26T20:49:32.469Z,84.97
2023-03-26T20:52:01.278Z,83.42
2023-03-26T20:54:31.138Z,83.81
2023-03-26T20:57:00.414Z,85.01
2023-03-26T20:59:29.986Z,83.08
2023-03-26T21:02:00.598Z,83.44
2023-03-26T21:04:32.410Z,82.86
2023-03-26T21:07:10.876Z,82.08
2023-03-26T21:09:47.591Z,81.46
2023-03-26T21:12:23.099Z,82.23
2023-03-26T21:14:52.881Z,82.57
2023-03-26T21:17:25.642Z,83.39
2023-03-26T21:19:57.879Z,84.37
2023-03-26T21:22:37.780Z,84.07
2023-03-26T21:25:18.654Z,84.96
2023-03-26T21:27:59.103Z,85.67
2023-03-26T21:30:28.869Z,85.66
2023-03-26T21:32:57.873Z,86.94
2023-03-26T21:35:32.526Z,87.82
2023-03-26T21:38:02.470Z,88.57
2023-03-26T21:40:32.053Z,89.19
2023-03-26T21:43:01.572Z,88.35
2023-03-26T21:45:31.656Z,88.16
2023-03-26T21:48:02.540Z,88.76
2023-03-26T21:50:33.920Z,90.88
2023-03-26T21:53:03.922Z,91.60
2023-03-26T21:55:40.330Z,89.97
2023-03-26T21:58:28.457Z,93.65
2023-03-26T22:01:13.839Z,95.16
2023-03-26T22:03:56.587Z,95.62
2023-03-26T22:06:32.723Z,94.20
2023-03-26T22:09:02.003Z,94.17
2023-03-26T22:11:31.202Z,94.21
2023-03-26T22:14:01.859Z,92.39
2023-03-26T22:16:30.901Z,93.72
2023-03-26T22:19:00.490Z,95.18
2023-03-26T22:21:30.964Z,96.31
2023-03-26T22:24:04.115Z,96.05
2023-03-26T22:26:34.510Z,97.81
2023-03-26T22:29:03.524Z,100.00
2023-03-26T22:31:32.543Z,100.00
2023-03-26T22:34:01.798Z,100.00
2023-03-26T22:36:32.864Z,100.00
2023-03-26T22:39:02.756Z,100.00
2023-03-26T22:41:32.077Z,100.00
2023-03-26T22:44:12.884Z,100.00
2023-03-26T22:46:49.820Z,99.17
2023-03-26T22:49:19.167Z,99.82
2023-03-26T22:51:50.686Z,99.48
2023-03-26T22:54:20.561Z,100.00
2023-03-26T22:56:53.023Z,100.00
2023-03-26T22:59:22.226Z,100.00
2023-03-26T23:01:51.510Z,100.00
2023-03-26T23:04:31.721Z,100.00
2023-03-26T23:07:02.968Z,100.00
2023-03-26T23:09:32.142Z,100.00
2023-03-26T23:12:02.185Z,100.00
2023-03-26T23:14:32.609Z,100.00
2023-03-26T23:17:01.671Z,100.00
2023-03-26T23:19:34.248Z,100.00
2023-03-26T23:22:04.746Z,100.00
2023-03-26T23:24:33.976Z,100.00
2023-03-26T23:27:03.752Z,100.00
2023-03-26T23:29:33.777Z,100.00
2023-03-26T23:32:03.074Z,100.00
2023-03-26T23:34:53.080Z,100.00
2023-03-26T23:37:24.751Z,100.00
2023-03-26T23:39:55.421Z,100.00
2023-03-26T23:42:28.353Z,100.00
2023-03-26T23:44:59.063Z,100.00
2023-03-26T23:47:34.771Z,100.00
2023-03-26T23:50:05.802Z,100.00
2023-03-26T23:52:37.639Z,100.00
2023-03-26T23:55:08.353Z,100.00
2023-03-26T23:57:37.359Z,100.00
